Home > Products > Valid Products > TAF

000
FTUS46 KMTR 252039 AAA
TAFOAK
TAF AMD
KOAK 252039Z 2521/2624 26012KT P6SM BKN011 BKN018
     FM252200 27015G20KT P6SM FEW015 BKN020
      TEMPO 2522/2602 SCT020
     FM260200 27013G19KT P6SM BKN020
     FM260400 27010KT P6SM OVC015
     FM261900 25008KT P6SM SCT020
     FM262100 27011KT P6SM SCT030=



000
FTUS46 KMTR 251120
TAFSFO
TAF
KSFO 251120Z 2512/2618 27010KT P6SM SCT010 OVC015
     FM251800 27011KT P6SM SCT018 SCT035
      TEMPO 2518/2520 BKN020
     FM252000 27018G26KT P6SM FEW025 SCT040
     FM260200 28012KT P6SM SCT030
      TEMPO 2602/2606 BKN018
     FM260600 28010KT P6SM OVC015
     FM261759 28009KT P6SM SCT020=



000
FTUS46 KMTR 251120
TAFSTS
TAF
KSTS 251120Z 2512/2612 00000KT P6SM OVC009
     FM251700 VRB03KT P6SM SCT014
      TEMPO 2517/2518 BKN014
     FM251800 19008KT P6SM FEW015
     FM252100 18014G21KT P6SM SKC
     FM260400 19004KT P6SM BKN012
     FM260600 VRB03KT P6SM OVC010=



000
FTUS46 KMTR 251120
TAFSJC
TAF
KSJC 251120Z 2512/2612 VRB03KT P6SM OVC018
     FM251700 32011KT P6SM SCT020
     FM252100 31018G24KT P6SM FEW030
     FM260300 30009G16KT P6SM FEW020
     FM260600 21006KT P6SM BKN025=



000
FTUS46 KMTR 251120
TAFLVK
TAF
KLVK 251120Z 2512/2612 26006KT P6SM OVC016
     FM251700 28010KT P6SM SCT025
      TEMPO 2517/2519 BKN024
     FM252100 27016G24KT P6SM FEW030
     FM260300 28011G16KT P6SM SCT025
     FM260600 27008KT P6SM OVC020=



000
FTUS46 KMTR 251120
TAFSNS
TAF
KSNS 251120Z 2512/2612 25004KT P6SM OVC018
     FM251900 26014G21KT P6SM SCT025
      TEMPO 2519/2521 BKN025
     FM260300 25012G18KT P6SM BKN018
     FM260600 24010KT P6SM OVC009=



000
FTUS46 KMTR 251120
TAFOAK
TAF
KOAK 251120Z 2512/2618 26008KT P6SM OVC012
     FM251800 25011KT P6SM SCT020 SCT040
      TEMPO 2518/2520 BKN018
     FM252000 27017G24KT P6SM FEW030 SCT050
     FM260200 27014G21KT P6SM SCT020
      TEMPO 2602/2606 BKN018
     FM260600 27010KT P6SM OVC015
     FM261759 25008KT P6SM SCT020=



000
FTUS46 KMTR 251120
TAFMRY
TAF
KMRY 251120Z 2512/2612 26006KT P6SM OVC016
     FM251800 25010KT P6SM BKN020
     FM252000 25012G18KT P6SM SCT025
      TEMPO 2520/2521 BKN025
     FM260200 24006KT P6SM BKN016
     FM260600 23006KT P6SM OVC009=



000
FTUS46 KMTR 242100 AAB
TAFSFO
TAF AMD
KSFO 242100Z 2421/2524 27014KT P6SM FEW020 BKN025
      TEMPO 2422/2502 SCT025
     FM250400 27012KT P6SM BKN020
     FM250600 27009KT P6SM OVC015
     FM251200 25007KT P6SM OVC012
     FM251700 27011KT P6SM SCT020 SCT040
     FM252000 27015KT P6SM SCT050=



000
FTUS46 KMTR 241909 AAA
TAFOAK
TAF AMD
KOAK 241909Z 2419/2524 25010KT P6SM OVC019
      TEMPO 2419/2420 SCT020
     FM242000 25011KT P6SM SCT020
     FM250400 26009KT P6SM BKN020
     FM250600 26008KT P6SM OVC015
     FM251200 26006KT P6SM OVC012
     FM251800 25011KT P6SM SCT020 SCT040
     FM252000 27013KT P6SM SCT050=



000
FTUS46 KMTR 241834 AAA
TAFSFO
TAF AMD
KSFO 241834Z 2419/2524 26012KT P6SM FEW010 BKN015
     FM241905 27013KT P6SM SCT015 SCT040
     FM242100 27015KT P6SM SCT025 SCT060
     FM250400 27012KT P6SM BKN020
     FM250600 27009KT P6SM OVC015
     FM251200 25007KT P6SM OVC012
     FM251700 27011KT P6SM SCT020 SCT040
     FM252000 27015KT P6SM SCT050=



000
FTUS46 KMTR 241720
TAFSJC
TAF
KSJC 241720Z 2418/2518 32009KT P6SM FEW010 SCT030 BKN050
     FM242100 30013KT P6SM FEW030 SCT060
     FM250300 30008KT P6SM SCT020
     FM250700 30003KT P6SM BKN015
     FM251000 VRB03KT P6SM OVC012=



000
FTUS46 KMTR 241720
TAFSFO
TAF
KSFO 241720Z 2418/2524 26012KT P6SM SCT015 SCT040
     FM242100 27015KT P6SM SCT025 SCT060
     FM250400 27012KT P6SM BKN020
     FM250600 27009KT P6SM OVC015
     FM251200 25007KT P6SM OVC012
     FM251700 27011KT P6SM SCT020 SCT040
     FM252000 27015KT P6SM SCT050=



000
FTUS46 KMTR 241720
TAFMRY
TAF
KMRY 241720Z 2418/2518 31007KT P6SM BKN025
     FM241830 29010KT P6SM SCT025
     FM242100 26011G16KT P6SM FEW025 SCT060
     FM250300 24005KT P6SM SCT012 SCT020 BKN050
     FM250600 21003KT P6SM BKN012 OVC020
     FM251000 VRB03KT P6SM OVC012=



000
FTUS46 KMTR 241720
TAFLVK
TAF
KLVK 241720Z 2418/2518 25008KT P6SM SCT015 OVC020
     FM241830 26010KT P6SM SCT020 SCT050
     FM242100 27017G24KT P6SM FEW025 FEW060
     FM250400 26006KT P6SM SCT020
     FM250700 26006KT P6SM BKN018
     FM251000 26006KT P6SM OVC015=



000
FTUS46 KMTR 241720
TAFSNS
TAF
KSNS 241720Z 2418/2518 26004KT P6SM BKN017 OVC030
     FM241830 28006KT P6SM BKN025 BKN040
     FM241900 27012KT P6SM BKN040
     FM242000 27011G16KT P6SM FEW020 SCT060
     FM250200 26007KT P6SM SCT020 BKN050
     FM250500 26005KT P6SM BKN012 OVC020
     FM251000 25004KT P6SM OVC012=



000
FTUS46 KMTR 241720
TAFSTS
TAF
KSTS 241720Z 2418/2518 00000KT P6SM FEW015
     FM241900 21008KT P6SM FEW050
     FM242100 21011KT P6SM FEW050
     FM250200 16007KT P6SM FEW030 FEW080
     FM250500 VRB03KT P6SM BKN012
     FM251100 00000KT 2SM BR OVC009
     FM251700 VRB03KT P6SM OVC015=



000
FTUS46 KMTR 241720
TAFOAK
TAF
KOAK 241720Z 2418/2524 26012KT P6SM OVC020
     FM241900 26013KT P6SM SCT020 SCT060
     FM250400 26009KT P6SM BKN020
     FM250600 26008KT P6SM OVC015
     FM251200 26006KT P6SM OVC012
     FM251800 25011KT P6SM SCT020 SCT040
     FM252000 27013KT P6SM SCT050=



000
FTUS46 KMTR 241655 AAC
TAFSFO
TAF AMD
KSFO 241655Z 2417/2518 27015KT P6SM FEW008 OVC012
     FM241800 26012KT P6SM SCT015 SCT040
     FM242100 27015KT P6SM SCT025 SCT060
     FM250400 27012KT P6SM BKN020
     FM250600 27009KT P6SM OVC015
     FM251200 25007KT P6SM OVC012
     FM251700 27011KT P6SM SCT020 SCT040=



000
FTUS46 KMTR 241602 AAA
TAFSJC
TAF AMD
KSJC 241602Z 2416/2512 33005KT P6SM FEW009 SCT020 SCT040
     FM241800 32009KT P6SM FEW030 SCT040
     FM242100 30013KT P6SM FEW030 FEW060
     FM250300 30008KT P6SM SCT020
     FM250700 30003KT P6SM BKN015
     FM251000 VRB03KT P6SM OVC012=



000
FTUS46 KMTR 241502 AAB
TAFSFO
TAF AMD
KSFO 241502Z 2415/2518 28012KT P6SM FEW008 OVC013
     FM241700 26009KT P6SM SCT015 SCT050
     FM242100 27015KT P6SM SCT025 SCT060
     FM250400 27012KT P6SM BKN020
     FM250600 27009KT P6SM OVC015
     FM251200 25007KT P6SM OVC012
     FM251700 27011KT P6SM SCT020 SCT040=



000
FTUS46 KMTR 241258 CCA
TAFSTS
TAF COR
KSTS 241258Z 2412/2512 VRB03KT P6SM FEW050
      TEMPO 2413/2416 OVC006
     FM241900 21008KT P6SM FEW050
     FM242100 21011KT P6SM FEW050
     FM250200 16007KT P6SM FEW030 FEW080
     FM250700 VRB03KT P6SM BKN012
     FM251100 VRB02KT P6SM OVC009=



000
FTUS46 KMTR 241126
TAFMRY
TAF
KMRY 241126Z 2412/2512 19004KT P6SM -DZ BKN012 OVC018
     FM241800 26007KT P6SM SCT012 SCT020 BKN050
     FM242100 26011G16KT P6SM FEW015 FEW025 SCT060
     FM250300 24005KT P6SM SCT012 SCT020 BKN050
     FM250600 21003KT P6SM BKN012 OVC020
     FM251000 VRB03KT P6SM OVC012=



000
FTUS46 KMTR 241126
TAFSNS
TAF
KSNS 241126Z 2412/2512 26004KT 6SM -DZ OVC015
     FM241800 VRB06KT P6SM SCT015 BKN050
     FM242000 27011G16KT P6SM FEW020 SCT060
     FM250200 26007KT P6SM SCT020 BKN050
     FM250700 26005KT P6SM BKN012 OVC020
     FM251000 25004KT P6SM OVC012=



000
FTUS46 KMTR 241126
TAFSTS
TAF
KSTS 241126Z 2412/2512 VRB03KT P6SM FEW050
      TEMPO 2412/2416 BKN014
     FM241900 21008KT P6SM FEW050
     FM242100 21011KT P6SM FEW050
     FM250200 16007KT P6SM FEW030 FEW080
     FM250700 VRB03KT P6SM BKN012
     FM251100 VRB02KT P6SM OVC009=



000
FTUS46 KMTR 241126
TAFLVK
TAF
KLVK 241126Z 2412/2512 23006KT P6SM OVC015
     FM241700 26010KT P6SM SCT020 SCT050
     FM242100 27017G24KT P6SM FEW025 FEW060
     FM250400 26006KT P6SM SCT020
     FM250700 26006KT P6SM BKN018
     FM251000 26006KT P6SM OVC015=



000
FTUS46 KMTR 241126
TAFSFO
TAF
KSFO 241126Z 2412/2518 26012KT P6SM OVC011
     FM241700 26009KT P6SM SCT020 SCT050
     FM242100 27015KT P6SM FEW025 FEW060
     FM250400 27012KT P6SM BKN020
     FM250600 27009KT P6SM OVC015
     FM251200 25007KT P6SM OVC012
     FM251700 27011KT P6SM SCT020 SCT040=



000
FTUS46 KMTR 241126
TAFSJC
TAF
KSJC 241126Z 2412/2512 31004KT P6SM BKN025 OVC030
     FM241800 32009KT P6SM FEW030 SCT050
     FM242100 30013KT P6SM FEW030 FEW060
     FM250300 30008KT P6SM SCT020
     FM250700 30003KT P6SM BKN015
     FM251000 VRB03KT P6SM OVC012=



000
FTUS46 KMTR 241126
TAFOAK
TAF
KOAK 241126Z 2412/2518 26006KT P6SM OVC013
     FM241800 26013KT P6SM SCT020 SCT060
     FM250400 26009KT P6SM BKN020
     FM250600 26008KT P6SM OVC015
     FM251200 26006KT P6SM OVC012
     FM251700 25011KT P6SM SCT020 SCT040=



000
FTUS46 KMTR 240900 AAA
TAFSFO
TAF AMD
KSFO 240900Z 2409/2512 26009KT P6SM OVC012
     FM241730 26009KT P6SM FEW015 BKN100
     FM242100 27015G19KT P6SM FEW025 BKN100
     FM250400 27012KT P6SM SCT020
     FM250600 27010KT P6SM BKN015=



000
FTUS46 KMTR 240323 AAA
TAFMRY
TAF AMD
KMRY 240323Z 2403/2424 26011KT P6SM OVC009
     FM240700 19004KT P6SM OVC015
     FM241700 24005KT P6SM SCT012 BKN050=



000
FTUS46 KMTR 232348
TAFSTS
TAF
KSTS 232348Z 2400/2424 21009KT P6SM SCT035 BKN200
     FM240300 VRB03KT P6SM SCT200
     FM240600 00000KT P6SM BKN015
     FM241700 00000KT P6SM BKN050
     FM241900 21008KT P6SM SCT050=



000
FTUS46 KMTR 232348
TAFMRY
TAF
KMRY 232348Z 2400/2424 26011KT P6SM SCT025 BKN200
     FM240300 24005KT P6SM SCT015
      TEMPO 2403/2407 BKN015
     FM240700 19004KT P6SM BKN015
     FM241700 24005KT P6SM SCT012 BKN050=



000
FTUS46 KMTR 232348
TAFLVK
TAF
KLVK 232348Z 2400/2424 30012KT P6SM FEW025 BKN200
     FM240400 26006KT P6SM FEW020
     FM240900 26004KT P6SM BKN020
     FM241700 26011KT P6SM BKN100=



000
FTUS46 KMTR 232348
TAFSJC
TAF
KSJC 232348Z 2400/2424 31015G20KT P6SM SCT040 BKN200
     FM240300 33007KT P6SM FEW035 BKN100
     FM240900 31004KT P6SM BKN020 BKN100
     FM241800 32012KT P6SM SCT030 BKN100=



000
FTUS46 KMTR 232348
TAFOAK
TAF
KOAK 232348Z 2400/2506 26013KT P6SM FEW025 SCT030 BKN200
     FM240400 26009KT P6SM FEW015 SCT020
      TEMPO 2404/2408 SCT015 BKN020
     FM240800 26006KT P6SM SCT015 BKN020
     FM241800 26014G19KT P6SM FEW020 BKN100
     FM250300 26010KT P6SM FEW020=



000
FTUS46 KMTR 232348
TAFSFO
TAF
KSFO 232348Z 2400/2506 27011KT P6SM SCT015 BKN200
      TEMPO 2401/2404 BKN015
     FM240400 26009KT P6SM BKN015
     FM241700 26009KT P6SM FEW015 BKN100
     FM242100 27015G19KT P6SM FEW025 BKN100
     FM250400 27012KT P6SM SCT020=



000
FTUS46 KMTR 232348
TAFSNS
TAF
KSNS 232348Z 2400/2424 28013KT P6SM FEW035 SCT100
     FM240400 26006KT P6SM FEW030 SCT100
     FM240700 26006KT P6SM BKN012
     FM241700 20007KT P6SM SCT012 BKN050=



000
FTUS46 KMTR 231957 AAA
TAFLVK
TAF AMD
KLVK 231957Z 2320/2418 28011KT P6SM FEW025
     FM240400 26006KT P6SM FEW020
     FM240900 26004KT P6SM BKN020
     FM241700 26011KT P6SM BKN100=



000
FTUS46 KMTR 231814 AAA
TAFOAK
TAF AMD
KOAK 231814Z 2318/2424 26010KT P6SM FEW025 SCT200
     FM232100 26013KT P6SM SCT035 BKN200
     FM240400 26009KT P6SM FEW015 BKN020
     FM241800 26011KT P6SM FEW020 BKN100=



000
FTUS46 KMTR 231348 AAA
TAFOAK
TAF AMD
KOAK 231348Z 2314/2418 28009KT P6SM BKN016 BKN020 OVC180
     FM231700 26010KT P6SM FEW025 SCT200
     FM232100 26013KT P6SM SCT035 BKN200
     FM240300 26009KT P6SM FEW015
     FM241400 26011KT P6SM FEW020 SCT200=



000
FTUS46 KMTR 231348 AAB
TAFLVK
TAF AMD
KLVK 231348Z 2314/2412 23006KT P6SM BKN018
     FM231630 26011KT P6SM FEW025
     FM240400 26006KT P6SM FEW020
     FM241000 26004KT P6SM SCT020=



000
FTUS46 KMTR 231235 AAA
TAFSJC
TAF AMD
KSJC 231235Z 2313/2412 00000KT P6SM SKC
     FM231900 31011KT P6SM FEW030
     FM232100 31013KT P6SM SCT040
     FM240300 33007KT P6SM FEW035=



000
FTUS46 KMTR 231210 AAA
TAFLVK
TAF AMD
KLVK 231210Z 2312/2412 20005KT P6SM SCT019
     FM231700 26011KT P6SM FEW025
     FM240400 26006KT P6SM FEW020
     FM241000 26004KT P6SM SCT020=



000
FTUS46 KMTR 231134
TAFLVK
TAF
KLVK 231134Z 2312/2412 22003KT P6SM BKN019
     FM231700 26011KT P6SM FEW025
     FM240400 26006KT P6SM FEW020
     FM241000 26004KT P6SM SCT020=



000
FTUS46 KMTR 231132
TAFSFO
TAF
KSFO 231132Z 2312/2418 27009KT P6SM FEW009 BKN150
     FM232000 28013KT P6SM FEW025 BKN150
     FM232200 28018G24KT P6SM SCT035
     FM240500 26012KT P6SM FEW020
     FM241200 26009KT P6SM FEW010=



000
FTUS46 KMTR 231132
TAFOAK
TAF
KOAK 231132Z 2312/2418 28009KT P6SM FEW010 OVC180
     FM231900 26010KT P6SM FEW025 SCT200
     FM232100 26013KT P6SM SCT035 BKN200
     FM240300 26009KT P6SM FEW015
     FM241400 26011KT P6SM FEW020 SCT200=



000
FTUS46 KMTR 231127
TAFSTS
TAF
KSTS 231127Z 2312/2412 00000KT P6SM SKC
     FM231700 17006KT P6SM FEW025
     FM232100 16009KT P6SM SCT035 BKN200
     FM240300 VRB03KT P6SM SKC
     FM241100 00000KT P6SM SKC=



000
FTUS46 KMTR 230902 AAA
TAFMRY
TAF AMD
KMRY 230902Z 2309/2406 20005KT P6SM BKN010 OVC017
     FM231600 26005KT P6SM FEW015 SCT200
     FM232100 26011KT P6SM SCT025
     FM240300 24005KT P6SM BKN012=



000
FTUS46 KMTR 230534
TAFSFO
TAF
KSFO 230534Z 2306/2412 26013KT P6SM FEW013 FEW022 SCT200
     FM231300 26009KT P6SM FEW020 SCT200
     FM232000 28013KT P6SM SCT035 BKN150
     FM232200 28018G24KT P6SM SCT035
     FM240400 26012KT P6SM FEW020=



000
FTUS46 KMTR 230534
TAFOAK
TAF
KOAK 230534Z 2306/2412 29008KT P6SM FEW016 SCT200
     FM231900 26010KT P6SM FEW025 SCT200
     FM232100 26013KT P6SM SCT035 BKN200
     FM240300 26009KT P6SM FEW030=



000
FTUS46 KMTR 230530
TAFSTS
TAF
KSTS 230530Z 2306/2406 25005KT P6SM SKC
     FM230700 00000KT P6SM SKC
     FM231700 17006KT P6SM FEW025
     FM232100 16009KT P6SM SCT035 BKN200
     FM240300 VRB03KT P6SM SKC=



000
FTUS46 KMTR 230305 AAA
TAFSFO
TAF AMD
KSFO 230305Z 2303/2406 26013KT P6SM FEW012 SCT060 BKN200
     FM230500 26009KT P6SM FEW025
     FM231900 28012KT P6SM FEW025 BKN150
     FM232200 28018G24KT P6SM SCT035=



    US Dept of Commerce
    National Oceanic and Atmospheric Administration
    National Weather Service
    1325 East West Highway
    Silver Spring, MD 20910
    Page Author: NWS Internet Services Team
Disclaimer
Information Quality
Credits
Glossary
Privacy Policy
Freedom of Information Act (FOIA)
About Us
Career Opportunities